createdAt,value
2022-12-18T00:01:53.905Z,29.87
2022-12-18T00:04:25.375Z,30.97
2022-12-18T00:06:53.175Z,24.03
2022-12-18T00:09:20.771Z,24.20
2022-12-18T00:11:48.308Z,25.93
2022-12-18T00:14:15.945Z,24.93
2022-12-18T00:16:45.239Z,19.70
2022-12-18T00:19:12.931Z,20.23
2022-12-18T00:21:40.431Z,19.53
2022-12-18T00:24:07.984Z,24.83
2022-12-18T00:26:36.302Z,15.77
2022-12-18T00:29:05.718Z,23.73
2022-12-18T00:31:33.436Z,20.90
2022-12-18T00:34:01.358Z,18.30
2022-12-18T00:36:32.896Z,18.80
2022-12-18T00:39:04.760Z,19.90
2022-12-18T00:41:32.367Z,18.37
2022-12-18T00:43:59.806Z,20.47
2022-12-18T00:46:29.320Z,20.43
2022-12-18T00:48:56.841Z,19.07
2022-12-18T00:51:24.431Z,17.97
2022-12-18T00:53:51.903Z,19.10
2022-12-18T00:56:19.662Z,23.70
2022-12-18T00:58:47.097Z,20.23
2022-12-18T01:01:14.798Z,21.60
2022-12-18T01:03:42.784Z,18.47
2022-12-18T01:06:11.455Z,19.83
2022-12-18T01:08:39.475Z,21.20
2022-12-18T01:11:10.992Z,16.80
2022-12-18T01:13:38.781Z,17.40
2022-12-18T01:16:06.564Z,20.20
2022-12-18T01:18:34.153Z,20.33
2022-12-18T01:21:01.655Z,18.93
2022-12-18T01:23:29.205Z,18.77
2022-12-18T01:25:56.693Z,20.83
2022-12-18T01:28:24.229Z,18.47
2022-12-18T01:30:51.766Z,18.83
2022-12-18T01:33:19.483Z,20.50
2022-12-18T01:35:47.052Z,19.60
2022-12-18T01:38:16.475Z,14.37
2022-12-18T01:40:43.984Z,24.60
2022-12-18T01:43:11.529Z,20.47
2022-12-18T01:45:39.069Z,23.00
2022-12-18T01:48:08.221Z,18.33
2022-12-18T01:50:37.698Z,19.90
2022-12-18T01:53:05.170Z,19.57
2022-12-18T01:55:36.896Z,20.87
2022-12-18T01:58:05.236Z,18.43
2022-12-18T02:00:33.024Z,18.93
2022-12-18T02:03:00.639Z,18.57
2022-12-18T02:05:38.271Z,17.30
2022-12-18T02:08:15.644Z,19.20
2022-12-18T02:10:47.796Z,18.83
2022-12-18T02:13:35.749Z,20.23
2022-12-18T02:16:06.565Z,19.53
2022-12-18T02:18:35.327Z,18.57
2022-12-18T02:21:10.338Z,20.30
2022-12-18T02:23:43.821Z,18.73
2022-12-18T02:26:11.332Z,21.13
2022-12-18T02:28:44.187Z,18.73
2022-12-18T02:31:13.391Z,18.43
2022-12-18T02:33:44.920Z,20.60
2022-12-18T02:36:13.894Z,20.67
2022-12-18T02:38:41.871Z,21.43
2022-12-18T02:41:09.408Z,20.00
2022-12-18T02:43:37.313Z,20.67
2022-12-18T02:46:24.728Z,20.90
2022-12-18T02:48:53.632Z,19.40
2022-12-18T02:51:30.357Z,24.47
2022-12-18T02:54:00.432Z,22.07
2022-12-18T02:56:30.080Z,23.37
2022-12-18T02:59:01.857Z,20.43
2022-12-18T03:01:55.548Z,21.07
2022-12-18T03:04:37.494Z,24.50
2022-12-18T03:07:06.805Z,17.33
2022-12-18T03:09:39.697Z,22.57
2022-12-18T03:12:10.051Z,18.13
2022-12-18T03:14:39.633Z,18.40
2022-12-18T03:17:09.031Z,18.30
2022-12-18T03:19:37.235Z,16.57
2022-12-18T03:22:05.995Z,17.23
2022-12-18T03:24:34.961Z,19.23
2022-12-18T03:27:04.434Z,19.03
2022-12-18T03:29:35.519Z,15.60
2022-12-18T03:32:25.760Z,21.00
2022-12-18T03:34:55.333Z,23.73
2022-12-18T03:37:22.783Z,16.93
2022-12-18T03:39:50.291Z,24.23
2022-12-18T03:42:17.671Z,16.67
2022-12-18T03:45:05.372Z,20.73
2022-12-18T03:47:32.788Z,17.20
2022-12-18T03:50:21.412Z,20.87
2022-12-18T03:52:51.765Z,15.43
2022-12-18T03:55:20.567Z,14.43
2022-12-18T03:57:49.601Z,18.00
2022-12-18T04:00:18.348Z,18.83
2022-12-18T04:02:47.722Z,21.53
2022-12-18T04:05:17.613Z,16.73
2022-12-18T04:07:45.565Z,15.90
2022-12-18T04:10:13.448Z,16.77
2022-12-18T04:12:40.865Z,16.03
2022-12-18T04:15:08.794Z,18.20
2022-12-18T04:17:36.203Z,17.30
2022-12-18T04:20:03.828Z,15.40
2022-12-18T04:22:31.243Z,17.50
2022-12-18T04:24:58.687Z,14.27
2022-12-18T04:27:26.087Z,15.73
2022-12-18T04:29:53.485Z,16.77
2022-12-18T04:32:20.933Z,16.33
2022-12-18T04:34:48.444Z,12.70
2022-12-18T04:37:15.865Z,17.27
2022-12-18T04:39:43.297Z,14.80
2022-12-18T04:42:10.718Z,14.47
2022-12-18T04:44:38.250Z,14.60
2022-12-18T04:47:05.845Z,15.33
2022-12-18T04:49:33.300Z,17.77
2022-12-18T04:52:00.699Z,14.30
2022-12-18T04:54:28.243Z,14.83
2022-12-18T04:56:55.655Z,13.10
2022-12-18T04:59:23.095Z,17.23
2022-12-18T05:01:51.216Z,19.27
2022-12-18T05:04:18.827Z,16.70
2022-12-18T05:06:47.381Z,14.20
2022-12-18T05:09:15.685Z,14.10
2022-12-18T05:11:43.149Z,13.70
2022-12-18T05:14:10.667Z,14.97
2022-12-18T05:16:38.160Z,14.30
2022-12-18T05:19:05.650Z,16.80
2022-12-18T05:21:33.101Z,18.53
2022-12-18T05:24:00.632Z,15.70
2022-12-18T05:26:28.049Z,17.27
2022-12-18T05:28:55.524Z,14.83
2022-12-18T05:31:23.004Z,16.50
2022-12-18T05:33:50.461Z,16.50
2022-12-18T05:36:17.952Z,15.03
2022-12-18T05:38:45.395Z,16.00
2022-12-18T05:41:12.925Z,13.47
2022-12-18T05:43:41.244Z,14.70
2022-12-18T05:46:19.064Z,15.07
2022-12-18T05:48:46.685Z,12.10
2022-12-18T05:51:18.369Z,14.37
2022-12-18T05:53:46.272Z,19.77
2022-12-18T05:56:16.067Z,17.60
2022-12-18T05:58:43.552Z,18.00
2022-12-18T06:01:14.454Z,14.97
2022-12-18T06:03:42.492Z,18.83
2022-12-18T06:06:17.223Z,13.27
2022-12-18T06:08:46.881Z,16.83
2022-12-18T06:11:15.120Z,17.37
2022-12-18T06:13:42.851Z,16.13
2022-12-18T06:16:10.505Z,11.63
2022-12-18T06:18:38.139Z,13.97
2022-12-18T06:21:05.678Z,13.73
2022-12-18T06:23:33.119Z,12.40
2022-12-18T06:26:00.604Z,13.90
2022-12-18T06:28:28.042Z,16.07
2022-12-18T06:30:55.536Z,12.97
2022-12-18T06:33:22.991Z,11.63
2022-12-18T06:35:50.499Z,17.67
2022-12-18T06:38:17.956Z,13.10
2022-12-18T06:40:45.471Z,11.00
2022-12-18T06:43:12.906Z,13.07
2022-12-18T06:45:40.499Z,15.07
2022-12-18T06:48:07.980Z,14.13
2022-12-18T06:50:35.475Z,14.20
2022-12-18T06:53:02.945Z,14.97
2022-12-18T06:55:31.340Z,14.03
2022-12-18T06:57:58.766Z,16.90
2022-12-18T07:00:26.232Z,13.03
2022-12-18T07:02:53.796Z,13.07
2022-12-18T07:05:21.353Z,15.90
2022-12-18T07:07:48.764Z,12.47
2022-12-18T07:10:16.290Z,14.43
2022-12-18T07:12:43.760Z,14.47
2022-12-18T07:15:16.602Z,13.23
2022-12-18T07:17:51.383Z,12.77
2022-12-18T07:20:20.183Z,13.83
2022-12-18T07:22:52.002Z,14.40
2022-12-18T07:25:22.245Z,14.10
2022-12-18T07:27:49.676Z,10.87
2022-12-18T07:30:17.882Z,10.63
2022-12-18T07:32:45.293Z,13.67
2022-12-18T07:35:12.770Z,11.20
2022-12-18T07:37:40.237Z,15.80
2022-12-18T07:40:08.128Z,12.27
2022-12-18T07:42:35.563Z,13.90
2022-12-18T07:45:06.072Z,13.97
2022-12-18T07:47:36.149Z,14.13
2022-12-18T07:50:04.644Z,14.77
2022-12-18T07:52:32.097Z,16.57
2022-12-18T07:55:00.548Z,17.00
2022-12-18T07:57:49.553Z,17.33
2022-12-18T08:00:15.981Z,15.37
2022-12-18T08:02:43.560Z,17.13
2022-12-18T08:05:11.215Z,13.87
2022-12-18T08:07:38.681Z,12.30
2022-12-18T08:10:06.482Z,14.20
2022-12-18T08:12:36.969Z,21.08
2022-12-18T08:15:04.605Z,15.57
2022-12-18T08:17:32.557Z,17.90
2022-12-18T08:20:00.013Z,13.70
2022-12-18T08:22:27.480Z,16.30
2022-12-18T08:24:55.008Z,12.43
2022-12-18T08:27:30.281Z,15.13
2022-12-18T08:29:58.432Z,13.47
2022-12-18T08:32:26.468Z,17.87
2022-12-18T08:34:54.102Z,14.43
2022-12-18T08:37:21.677Z,18.70
2022-12-18T08:39:49.267Z,15.90
2022-12-18T08:42:16.711Z,14.30
2022-12-18T08:44:46.057Z,16.97
2022-12-18T08:47:13.579Z,17.30
2022-12-18T08:49:41.384Z,8.80
2022-12-18T08:52:08.857Z,14.90
2022-12-18T08:54:36.326Z,13.90
2022-12-18T08:57:03.875Z,14.77
2022-12-18T08:59:31.444Z,16.53
2022-12-18T09:01:59.003Z,14.73
2022-12-18T09:04:26.558Z,12.90
2022-12-18T09:06:54.048Z,15.97
2022-12-18T09:09:21.517Z,15.83
2022-12-18T09:11:51.741Z,13.17
2022-12-18T09:14:19.267Z,14.93
2022-12-18T09:16:48.731Z,15.93
2022-12-18T09:19:16.183Z,19.33
2022-12-18T09:21:47.967Z,13.63
2022-12-18T09:24:16.445Z,13.73
2022-12-18T09:26:46.951Z,13.57
2022-12-18T09:29:15.409Z,13.63
2022-12-18T09:31:43.694Z,12.67
2022-12-18T09:34:11.180Z,19.48
2022-12-18T09:36:39.059Z,12.93
2022-12-18T09:39:08.782Z,14.43
2022-12-18T09:41:45.796Z,12.80
2022-12-18T09:44:19.133Z,14.17
2022-12-18T09:46:52.983Z,12.70
2022-12-18T09:49:23.111Z,19.70
2022-12-18T09:52:03.594Z,12.83
2022-12-18T09:54:39.955Z,14.23
2022-12-18T09:57:18.715Z,13.03
2022-12-18T09:59:49.580Z,13.90
2022-12-18T10:02:25.580Z,12.63
2022-12-18T10:05:04.487Z,14.33
2022-12-18T10:07:55.086Z,12.60
2022-12-18T10:10:28.661Z,18.77
2022-12-18T10:13:08.579Z,15.20
2022-12-18T10:15:55.023Z,16.07
2022-12-18T10:18:28.331Z,15.47
2022-12-18T10:21:05.421Z,14.40
2022-12-18T10:23:42.488Z,17.27
2022-12-18T10:26:14.017Z,14.53
2022-12-18T10:28:43.080Z,15.23
2022-12-18T10:31:17.225Z,11.77
2022-12-18T10:33:45.156Z,12.37
2022-12-18T10:36:12.651Z,18.03
2022-12-18T10:38:40.460Z,14.87
2022-12-18T10:41:29.331Z,13.17
2022-12-18T10:44:15.727Z,16.50
2022-12-18T10:46:43.422Z,14.13
2022-12-18T10:49:20.728Z,15.23
2022-12-18T10:51:48.614Z,15.80
2022-12-18T10:54:17.613Z,18.47
2022-12-18T10:56:45.637Z,17.00
2022-12-18T10:59:15.758Z,18.60
2022-12-18T11:01:48.019Z,15.07
2022-12-18T11:04:20.455Z,16.97
2022-12-18T11:06:58.750Z,16.97
2022-12-18T11:09:31.050Z,15.23
2022-12-18T11:11:59.770Z,17.27
2022-12-18T11:14:27.389Z,17.60
2022-12-18T11:17:24.813Z,19.60
2022-12-18T11:19:43.710Z,16.70
2022-12-18T11:22:26.221Z,17.60
2022-12-18T11:25:30.952Z,16.77
2022-12-18T11:27:57.262Z,17.33
2022-12-18T11:30:31.783Z,17.03
2022-12-18T11:32:59.212Z,15.43
2022-12-18T11:35:41.472Z,16.47
2022-12-18T11:38:19.655Z,17.17
2022-12-18T11:40:49.306Z,16.53
2022-12-18T11:43:19.308Z,17.57
2022-12-18T11:45:55.291Z,18.80
2022-12-18T11:48:24.994Z,18.03
2022-12-18T11:50:55.496Z,17.17
2022-12-18T11:53:23.324Z,16.97
2022-12-18T11:56:00.183Z,16.10
2022-12-18T11:58:31.301Z,20.13
2022-12-18T12:01:17.823Z,20.37
2022-12-18T12:04:14.878Z,25.40
2022-12-18T12:07:03.609Z,15.13
2022-12-18T12:09:49.557Z,17.83
2022-12-18T12:12:36.822Z,19.60
2022-12-18T12:15:07.513Z,21.03
2022-12-18T12:17:34.978Z,18.83
2022-12-18T12:20:08.835Z,18.70
2022-12-18T12:23:00.651Z,16.13
2022-12-18T12:25:28.075Z,20.83
2022-12-18T12:28:14.105Z,17.50
2022-12-18T12:30:48.461Z,18.37
2022-12-18T12:33:24.882Z,17.57
2022-12-18T12:36:01.471Z,15.57
2022-12-18T12:38:32.143Z,15.93
2022-12-18T12:41:03.419Z,18.80
2022-12-18T12:43:34.271Z,13.27
2022-12-18T12:46:07.816Z,21.27
2022-12-18T12:48:41.219Z,19.23
2022-12-18T12:51:15.343Z,20.57
2022-12-18T12:53:43.350Z,17.97
2022-12-18T12:56:13.122Z,21.80
2022-12-18T12:58:44.152Z,17.30
2022-12-18T13:01:11.727Z,16.90
2022-12-18T13:03:39.239Z,17.43
2022-12-18T13:06:18.847Z,23.87
2022-12-18T13:08:54.336Z,26.77
2022-12-18T13:11:32.077Z,19.27
2022-12-18T13:13:59.540Z,20.27
2022-12-18T13:16:28.082Z,21.00
2022-12-18T13:18:57.257Z,21.67
2022-12-18T13:21:32.613Z,18.53
2022-12-18T13:24:20.572Z,21.37
2022-12-18T13:26:48.065Z,20.73
2022-12-18T13:29:35.472Z,25.13
2022-12-18T13:32:20.367Z,21.00
2022-12-18T13:34:50.201Z,18.20
2022-12-18T13:37:32.958Z,21.00
2022-12-18T13:40:00.599Z,20.13
2022-12-18T13:42:31.758Z,21.67
2022-12-18T13:44:59.475Z,18.23
2022-12-18T13:47:29.955Z,23.90
2022-12-18T13:49:58.189Z,19.60
2022-12-18T13:52:27.076Z,19.27
2022-12-18T13:54:59.507Z,18.03
2022-12-18T13:57:27.032Z,25.30
2022-12-18T13:59:54.527Z,20.73
2022-12-18T14:02:29.482Z,15.43
2022-12-18T14:04:57.028Z,22.70
2022-12-18T14:07:28.899Z,26.23
2022-12-18T14:10:25.977Z,29.20
2022-12-18T14:12:49.539Z,28.43
2022-12-18T14:15:32.514Z,23.33
2022-12-18T14:18:02.550Z,21.70
2022-12-18T14:20:31.783Z,30.97
2022-12-18T14:23:00.399Z,24.70
2022-12-18T14:25:30.281Z,21.63
2022-12-18T14:28:04.072Z,28.50
2022-12-18T14:30:32.551Z,25.43
2022-12-18T14:33:22.007Z,36.50
2022-12-18T14:36:00.817Z,34.77
2022-12-18T14:38:38.211Z,27.77
2022-12-18T14:41:07.225Z,42.40
2022-12-18T14:43:36.281Z,30.23
2022-12-18T14:46:05.167Z,23.23
2022-12-18T14:48:36.372Z,22.57
2022-12-18T14:51:05.464Z,28.03
2022-12-18T14:53:54.720Z,25.97
2022-12-18T14:56:22.832Z,30.03
2022-12-18T14:58:51.925Z,31.57
2022-12-18T15:01:24.046Z,27.77
2022-12-18T15:03:53.358Z,31.33
2022-12-18T15:06:39.922Z,30.53
2022-12-18T15:09:21.934Z,25.70
2022-12-18T15:11:49.395Z,21.97
2022-12-18T15:14:32.738Z,26.17
2022-12-18T15:17:01.526Z,27.37
2022-12-18T15:19:40.427Z,25.00
2022-12-18T15:22:23.350Z,27.27
2022-12-18T15:24:51.376Z,27.77
2022-12-18T15:27:36.539Z,24.47
2022-12-18T15:30:07.064Z,26.67
2022-12-18T15:32:34.744Z,23.87
2022-12-18T15:35:04.882Z,22.13
2022-12-18T15:37:32.335Z,32.60
2022-12-18T15:39:59.763Z,26.27
2022-12-18T15:42:27.238Z,23.93
2022-12-18T15:44:54.706Z,27.80
2022-12-18T15:47:22.199Z,25.63
2022-12-18T15:49:49.671Z,29.70
2022-12-18T15:52:17.540Z,20.37
2022-12-18T15:54:45.028Z,27.70
2022-12-18T15:57:13.039Z,26.90
2022-12-18T15:59:40.594Z,24.30
2022-12-18T16:02:17.529Z,25.87
2022-12-18T16:04:45.272Z,23.47
2022-12-18T16:07:17.250Z,28.13
2022-12-18T16:09:47.147Z,27.87
2022-12-18T16:12:18.997Z,28.77
2022-12-18T16:14:48.645Z,29.10
2022-12-18T16:17:16.663Z,26.47
2022-12-18T16:19:44.291Z,28.47
2022-12-18T16:22:30.670Z,29.43
2022-12-18T16:24:58.748Z,28.33
2022-12-18T16:27:26.419Z,29.97
2022-12-18T16:29:54.037Z,30.53
2022-12-18T16:32:22.272Z,29.00
2022-12-18T16:34:50.780Z,36.50
2022-12-18T16:37:18.332Z,31.50
2022-12-18T16:39:45.849Z,27.53
2022-12-18T16:42:20.672Z,30.87
2022-12-18T16:44:49.043Z,32.50
2022-12-18T16:47:17.913Z,30.93
2022-12-18T16:49:45.760Z,26.07
2022-12-18T16:52:14.475Z,26.30
2022-12-18T16:54:45.060Z,32.23
2022-12-18T16:57:18.209Z,26.87
2022-12-18T16:59:48.289Z,27.33
2022-12-18T17:02:23.884Z,35.87
2022-12-18T17:05:06.422Z,23.80
2022-12-18T17:07:35.189Z,32.87
2022-12-18T17:10:04.931Z,30.80
2022-12-18T17:12:32.352Z,29.23
2022-12-18T17:14:59.877Z,25.67
2022-12-18T17:17:27.344Z,29.97
2022-12-18T17:19:57.917Z,30.20
2022-12-18T17:22:27.552Z,27.93
2022-12-18T17:24:55.093Z,32.50
2022-12-18T17:27:22.560Z,30.23
2022-12-18T17:29:50.022Z,28.97
2022-12-18T17:32:18.348Z,32.37
2022-12-18T17:34:46.255Z,34.87
2022-12-18T17:37:13.796Z,33.50
2022-12-18T17:39:41.243Z,29.97
2022-12-18T17:42:08.786Z,32.03
2022-12-18T17:44:38.445Z,28.60
2022-12-18T17:47:05.958Z,33.93
2022-12-18T17:49:33.495Z,32.20
2022-12-18T17:52:00.994Z,35.40
2022-12-18T17:54:28.459Z,33.10
2022-12-18T17:56:55.960Z,30.23
2022-12-18T17:59:23.425Z,34.80
2022-12-18T18:01:51.010Z,31.37
2022-12-18T18:04:20.761Z,27.93
2022-12-18T18:06:48.425Z,34.37
2022-12-18T18:09:16.785Z,33.73
2022-12-18T18:11:45.357Z,35.50
2022-12-18T18:14:17.670Z,31.93
2022-12-18T18:16:47.774Z,36.10
2022-12-18T18:19:17.816Z,33.73
2022-12-18T18:21:46.619Z,38.53
2022-12-18T18:24:14.941Z,37.90
2022-12-18T18:26:42.694Z,33.77
2022-12-18T18:29:13.736Z,34.87
2022-12-18T18:31:41.825Z,31.57
2022-12-18T18:34:14.163Z,36.43
2022-12-18T18:36:41.697Z,36.63
2022-12-18T18:39:09.324Z,26.73
2022-12-18T18:41:38.081Z,35.43
2022-12-18T18:44:05.826Z,35.60
2022-12-18T18:46:33.483Z,34.63
2022-12-18T18:49:00.968Z,29.87
2022-12-18T18:51:34.525Z,37.77
2022-12-18T18:54:02.394Z,38.87
2022-12-18T18:59:22.431Z,39.47
2022-12-18T19:01:59.099Z,32.60
2022-12-18T19:04:26.634Z,33.00
2022-12-18T19:06:54.099Z,35.80
2022-12-18T19:09:24.616Z,35.90
2022-12-18T19:11:53.160Z,37.93
2022-12-18T19:14:20.717Z,32.60
2022-12-18T19:16:48.360Z,36.50
2022-12-18T19:19:17.012Z,33.40
2022-12-18T19:21:44.558Z,37.77
2022-12-18T19:24:12.103Z,31.13
2022-12-18T19:26:39.866Z,32.83
2022-12-18T19:29:08.381Z,40.93
2022-12-18T19:31:37.366Z,37.43
2022-12-18T19:34:06.675Z,34.27
2022-12-18T19:36:35.129Z,38.43
2022-12-18T19:39:02.876Z,32.37
2022-12-18T19:41:31.236Z,39.17
2022-12-18T19:44:01.408Z,41.57
2022-12-18T19:46:35.579Z,38.47
2022-12-18T19:49:03.175Z,44.63
2022-12-18T19:51:31.848Z,39.40
2022-12-18T19:54:01.669Z,41.33
2022-12-18T19:56:31.556Z,39.37
2022-12-18T19:59:01.208Z,39.93
2022-12-18T20:01:29.552Z,38.53
2022-12-18T20:03:58.862Z,39.23
2022-12-18T20:06:27.224Z,40.07
2022-12-18T20:08:59.572Z,37.93
2022-12-18T20:11:27.902Z,40.80
2022-12-18T20:13:55.467Z,39.03
2022-12-18T20:16:23.951Z,36.60
2022-12-18T20:18:52.365Z,38.87
2022-12-18T20:21:23.053Z,33.57
2022-12-18T20:23:50.599Z,37.27
2022-12-18T20:26:18.100Z,39.07
2022-12-18T20:28:45.805Z,44.33
2022-12-18T20:31:14.161Z,34.23
2022-12-18T20:33:42.957Z,33.43
2022-12-18T20:36:14.253Z,33.60
2022-12-18T20:38:43.233Z,37.53
2022-12-18T20:41:12.929Z,45.80
2022-12-18T20:43:40.827Z,38.87
2022-12-18T20:46:10.045Z,32.10
2022-12-18T20:48:40.842Z,40.73
2022-12-18T20:51:09.976Z,40.53
2022-12-18T20:53:37.644Z,38.93
2022-12-18T20:56:09.589Z,40.67
2022-12-18T20:58:37.429Z,37.10
2022-12-18T21:01:06.035Z,38.20
2022-12-18T21:03:33.813Z,36.97
2022-12-18T21:06:04.375Z,41.47
2022-12-18T21:08:32.040Z,38.27
2022-12-18T21:11:22.518Z,37.53
2022-12-18T21:13:50.059Z,40.60
2022-12-18T21:16:17.525Z,36.53
2022-12-18T21:18:45.026Z,30.67
2022-12-18T21:21:12.472Z,41.83
2022-12-18T21:23:40.143Z,43.00
2022-12-18T21:26:20.820Z,39.13
2022-12-18T21:28:48.989Z,40.70
2022-12-18T21:31:16.489Z,38.70
2022-12-18T21:33:43.991Z,36.07
2022-12-18T21:36:13.473Z,32.77
2022-12-18T21:38:41.073Z,38.70
2022-12-18T21:41:10.135Z,35.37
2022-12-18T21:43:38.228Z,38.00
2022-12-18T21:46:05.901Z,34.93
2022-12-18T21:48:33.552Z,43.00
2022-12-18T21:51:00.988Z,39.00
2022-12-18T21:53:31.241Z,34.77
2022-12-18T21:55:59.618Z,42.67
2022-12-18T21:58:27.229Z,41.20
2022-12-18T22:00:54.710Z,41.10
2022-12-18T22:03:22.266Z,45.00
2022-12-18T22:06:00.785Z,40.73
2022-12-18T22:08:36.670Z,42.73
2022-12-18T22:11:11.849Z,40.63
2022-12-18T22:13:39.412Z,39.20
2022-12-18T22:16:07.014Z,45.50
2022-12-18T22:18:34.531Z,39.97
2022-12-18T22:21:05.598Z,42.27
2022-12-18T22:23:33.390Z,40.20
2022-12-18T22:26:03.496Z,44.17
2022-12-18T22:28:30.953Z,42.40
2022-12-18T22:30:59.676Z,41.83
2022-12-18T22:33:28.608Z,46.10
2022-12-18T22:35:56.082Z,37.40
2022-12-18T22:38:23.535Z,42.07
2022-12-18T22:40:50.972Z,40.67
2022-12-18T22:43:18.449Z,39.80
2022-12-18T22:45:47.669Z,42.43
2022-12-18T22:48:15.316Z,43.07
2022-12-18T22:50:43.984Z,45.60
2022-12-18T22:53:11.488Z,40.70
2022-12-18T22:55:38.930Z,41.17
2022-12-18T22:58:06.368Z,45.73
2022-12-18T23:00:33.841Z,47.97
2022-12-18T23:03:01.618Z,42.33
2022-12-18T23:05:30.162Z,42.90
2022-12-18T23:07:57.765Z,46.17
2022-12-18T23:10:25.391Z,44.43
2022-12-18T23:12:52.897Z,47.27
2022-12-18T23:15:27.670Z,37.27
2022-12-18T23:17:56.288Z,46.23
2022-12-18T23:20:23.720Z,42.57
2022-12-18T23:22:51.209Z,41.67
2022-12-18T23:25:18.674Z,42.80
2022-12-18T23:27:46.199Z,41.93
2022-12-18T23:30:13.816Z,47.37
2022-12-18T23:32:41.289Z,40.70
2022-12-18T23:35:08.871Z,43.50
2022-12-18T23:37:58.364Z,44.57
2022-12-18T23:40:25.344Z,47.13
2022-12-18T23:42:52.793Z,34.77
2022-12-18T23:45:20.279Z,44.17
2022-12-18T23:47:50.882Z,43.33
2022-12-18T23:50:22.126Z,39.93
2022-12-18T23:52:56.681Z,43.20
2022-12-18T23:55:28.372Z,43.50
2022-12-18T23:57:55.850Z,42.27
